sensor_id;sensor_type;location;lat;lon;timestamp;pressure;altitude;pressure_sealevel;temperature
69857;BMP280;57147;53.582;10.112;2022-11-15T00:01:46;100982.22;;;5.85
69857;BMP280;57147;53.582;10.112;2022-11-15T00:06:46;100988.06;;;5.87
69857;BMP280;57147;53.582;10.112;2022-11-15T00:11:51;100990.13;;;5.85
69857;BMP280;57147;53.582;10.112;2022-11-15T00:16:51;100982.47;;;5.83
69857;BMP280;57147;53.582;10.112;2022-11-15T00:21:52;100975.63;;;5.82
69857;BMP280;57147;53.582;10.112;2022-11-15T00:26:55;100976.91;;;5.80
69857;BMP280;57147;53.582;10.112;2022-11-15T00:31:55;100946.97;;;5.59
69857;BMP280;57147;53.582;10.112;2022-11-15T00:36:56;100986.16;;;5.82
69857;BMP280;57147;53.582;10.112;2022-11-15T00:41:59;100986.22;;;5.87
69857;BMP280;57147;53.582;10.112;2022-11-15T00:47:00;100987.34;;;5.96
69857;BMP280;57147;53.582;10.112;2022-11-15T00:52:00;100989.44;;;5.94
69857;BMP280;57147;53.582;10.112;2022-11-15T00:57:03;100984.09;;;5.89
69857;BMP280;57147;53.582;10.112;2022-11-15T01:02:04;100981.19;;;5.86
69857;BMP280;57147;53.582;10.112;2022-11-15T01:07:04;100971.63;;;5.80
69857;BMP280;57147;53.582;10.112;2022-11-15T01:12:08;100951.34;;;5.80
69857;BMP280;57147;53.582;10.112;2022-11-15T01:17:09;100978.97;;;6.04
69857;BMP280;57147;53.582;10.112;2022-11-15T01:22:09;100965.78;;;6.04
69857;BMP280;57147;53.582;10.112;2022-11-15T01:27:12;100968.13;;;6.01
69857;BMP280;57147;53.582;10.112;2022-11-15T01:32:13;100953.03;;;5.91
69857;BMP280;57147;53.582;10.112;2022-11-15T01:37:13;100961.72;;;5.87
69857;BMP280;57147;53.582;10.112;2022-11-15T01:42:17;100945.59;;;5.83
69857;BMP280;57147;53.582;10.112;2022-11-15T01:47:20;100944.50;;;5.79
69857;BMP280;57147;53.582;10.112;2022-11-15T01:52:24;100950.00;;;5.72
69857;BMP280;57147;53.582;10.112;2022-11-15T01:57:28;100949.63;;;5.64
69857;BMP280;57147;53.582;10.112;2022-11-15T02:02:29;100931.09;;;5.54
69857;BMP280;57147;53.582;10.112;2022-11-15T02:07:31;100911.19;;;5.36
69857;BMP280;57147;53.582;10.112;2022-11-15T02:12:34;100904.47;;;5.23
69857;BMP280;57147;53.582;10.112;2022-11-15T02:17:47;100919.28;;;5.29
69857;BMP280;57147;53.582;10.112;2022-11-15T02:23:03;100926.56;;;5.22
69857;BMP280;57147;53.582;10.112;2022-11-15T02:28:36;100924.44;;;5.19
69857;BMP280;57147;53.582;10.112;2022-11-15T02:33:52;100922.53;;;5.15
69857;BMP280;57147;53.582;10.112;2022-11-15T02:38:58;100906.41;;;5.11
69857;BMP280;57147;53.582;10.112;2022-11-15T02:44:02;100908.53;;;5.09
69857;BMP280;57147;53.582;10.112;2022-11-15T02:49:06;100897.94;;;5.04
69857;BMP280;57147;53.582;10.112;2022-11-15T02:54:07;100898.84;;;4.93
69857;BMP280;57147;53.582;10.112;2022-11-15T02:59:17;100903.63;;;4.96
69857;BMP280;57147;53.582;10.112;2022-11-15T03:04:32;100901.00;;;4.96
69857;BMP280;57147;53.582;10.112;2022-11-15T03:09:42;100896.38;;;4.86
69857;BMP280;57147;53.582;10.112;2022-11-15T03:14:49;100895.09;;;4.89
69857;BMP280;57147;53.582;10.112;2022-11-15T03:19:57;100894.56;;;4.87
69857;BMP280;57147;53.582;10.112;2022-11-15T03:25:02;100898.22;;;4.81
69857;BMP280;57147;53.582;10.112;2022-11-15T03:30:06;100902.72;;;4.85
69857;BMP280;57147;53.582;10.112;2022-11-15T03:35:12;100899.28;;;4.85
69857;BMP280;57147;53.582;10.112;2022-11-15T03:40:14;100896.69;;;4.90
69857;BMP280;57147;53.582;10.112;2022-11-15T03:45:18;100886.25;;;4.95
69857;BMP280;57147;53.582;10.112;2022-11-15T03:50:24;100883.38;;;4.96
69857;BMP280;57147;53.582;10.112;2022-11-15T03:55:25;100857.84;;;4.97
69857;BMP280;57147;53.582;10.112;2022-11-15T04:00:25;100872.72;;;5.08
69857;BMP280;57147;53.582;10.112;2022-11-15T04:05:28;100883.25;;;5.08
69857;BMP280;57147;53.582;10.112;2022-11-15T04:10:29;100883.25;;;5.08
69857;BMP280;57147;53.582;10.112;2022-11-15T04:15:30;100870.81;;;5.03
69857;BMP280;57147;53.582;10.112;2022-11-15T04:20:33;100876.31;;;5.02
69857;BMP280;57147;53.582;10.112;2022-11-15T04:25:33;100876.31;;;5.02
69857;BMP280;57147;53.582;10.112;2022-11-15T04:30:34;100882.22;;;5.09
69857;BMP280;57147;53.582;10.112;2022-11-15T04:35:37;100880.09;;;5.11
69857;BMP280;57147;53.582;10.112;2022-11-15T04:40:38;100885.97;;;5.18
69857;BMP280;57147;53.582;10.112;2022-11-15T04:45:38;100885.50;;;5.21
69857;BMP280;57147;53.582;10.112;2022-11-15T04:50:41;100888.16;;;5.26
69857;BMP280;57147;53.582;10.112;2022-11-15T04:55:44;100887.78;;;5.39
69857;BMP280;57147;53.582;10.112;2022-11-15T05:00:44;100885.28;;;5.55
69857;BMP280;57147;53.582;10.112;2022-11-15T05:05:48;100882.22;;;5.63
69857;BMP280;57147;53.582;10.112;2022-11-15T05:10:48;100885.69;;;5.68
69857;BMP280;57147;53.582;10.112;2022-11-15T05:15:49;100888.34;;;5.73
69857;BMP280;57147;53.582;10.112;2022-11-15T05:20:52;100876.47;;;5.76
69857;BMP280;57147;53.582;10.112;2022-11-15T05:25:52;100879.50;;;5.90
69857;BMP280;57147;53.582;10.112;2022-11-15T05:30:53;100872.97;;;5.97
69857;BMP280;57147;53.582;10.112;2022-11-15T05:36:05;100872.44;;;6.00
69857;BMP280;57147;53.582;10.112;2022-11-15T05:41:06;100865.69;;;6.09
69857;BMP280;57147;53.582;10.112;2022-11-15T05:46:07;100830.75;;;5.87
69857;BMP280;57147;53.582;10.112;2022-11-15T05:51:12;100877.34;;;6.19
69857;BMP280;57147;53.582;10.112;2022-11-15T05:56:14;100871.81;;;6.25
69857;BMP280;57147;53.582;10.112;2022-11-15T06:01:15;100878.44;;;6.28
69857;BMP280;57147;53.582;10.112;2022-11-15T06:06:18;100883.78;;;6.38
69857;BMP280;57147;53.582;10.112;2022-11-15T06:11:19;100884.06;;;6.41
69857;BMP280;57147;53.582;10.112;2022-11-15T06:16:20;100866.34;;;6.37
69857;BMP280;57147;53.582;10.112;2022-11-15T06:21:23;100894.72;;;6.57
69857;BMP280;57147;53.582;10.112;2022-11-15T06:26:24;100900.78;;;6.57
69857;BMP280;57147;53.582;10.112;2022-11-15T06:31:24;100894.44;;;6.63
69857;BMP280;57147;53.582;10.112;2022-11-15T06:36:27;100898.66;;;6.64
69857;BMP280;57147;53.582;10.112;2022-11-15T06:41:28;100904.78;;;6.75
69857;BMP280;57147;53.582;10.112;2022-11-15T06:46:29;100910.84;;;6.80
69857;BMP280;57147;53.582;10.112;2022-11-15T06:51:32;100911.97;;;6.90
69857;BMP280;57147;53.582;10.112;2022-11-15T06:56:34;100919.84;;;6.84
69857;BMP280;57147;53.582;10.112;2022-11-15T07:01:34;100920.34;;;6.81
69857;BMP280;57147;53.582;10.112;2022-11-15T07:06:37;100873.31;;;6.58
69857;BMP280;57147;53.582;10.112;2022-11-15T07:11:38;100908.75;;;6.77
69857;BMP280;57147;53.582;10.112;2022-11-15T07:16:39;100936.81;;;6.99
69857;BMP280;57147;53.582;10.112;2022-11-15T07:21:42;100915.91;;;6.87
69857;BMP280;57147;53.582;10.112;2022-11-15T07:26:42;100941.56;;;7.02
69857;BMP280;57147;53.582;10.112;2022-11-15T07:31:43;100936.06;;;7.08
69857;BMP280;57147;53.582;10.112;2022-11-15T07:36:46;100939.50;;;7.14
69857;BMP280;57147;53.582;10.112;2022-11-15T07:41:46;100954.81;;;7.17
69857;BMP280;57147;53.582;10.112;2022-11-15T07:46:47;100944.81;;;7.24
69857;BMP280;57147;53.582;10.112;2022-11-15T07:51:50;100940.59;;;7.28
69857;BMP280;57147;53.582;10.112;2022-11-15T07:56:51;100926.84;;;7.26
69857;BMP280;57147;53.582;10.112;2022-11-15T08:01:51;100938.22;;;7.37
69857;BMP280;57147;53.582;10.112;2022-11-15T08:06:55;100934.53;;;7.43
69857;BMP280;57147;53.582;10.112;2022-11-15T08:11:55;100941.41;;;7.49
69857;BMP280;57147;53.582;10.112;2022-11-15T08:16:56;100943.25;;;7.53
69857;BMP280;57147;53.582;10.112;2022-11-15T08:21:59;100932.69;;;7.58
69857;BMP280;57147;53.582;10.112;2022-11-15T08:27:00;100940.63;;;7.69
69857;BMP280;57147;53.582;10.112;2022-11-15T08:32:00;100937.97;;;7.74
69857;BMP280;57147;53.582;10.112;2022-11-15T08:37:04;100935.06;;;7.75
69857;BMP280;57147;53.582;10.112;2022-11-15T08:42:04;100932.69;;;7.74
69857;BMP280;57147;53.582;10.112;2022-11-15T08:47:05;100929.53;;;7.82
69857;BMP280;57147;53.582;10.112;2022-11-15T08:52:08;100937.47;;;7.87
69857;BMP280;57147;53.582;10.112;2022-11-15T08:57:09;100949.88;;;7.91
69857;BMP280;57147;53.582;10.112;2022-11-15T09:02:12;100940.66;;;7.89
69857;BMP280;57147;53.582;10.112;2022-11-15T09:07:16;100938.50;;;7.91
69857;BMP280;57147;53.582;10.112;2022-11-15T09:12:16;100933.50;;;8.05
69857;BMP280;57147;53.582;10.112;2022-11-15T09:17:17;100929.78;;;8.16
69857;BMP280;57147;53.582;10.112;2022-11-15T09:22:20;100945.28;;;8.37
69857;BMP280;57147;53.582;10.112;2022-11-15T09:27:21;100935.75;;;8.52
69857;BMP280;57147;53.582;10.112;2022-11-15T09:32:22;100940.47;;;8.60
69857;BMP280;57147;53.582;10.112;2022-11-15T09:37:25;100933.00;;;8.72
69857;BMP280;57147;53.582;10.112;2022-11-15T09:42:38;100935.34;;;8.84
69857;BMP280;57147;53.582;10.112;2022-11-15T09:47:57;100944.00;;;8.99
69857;BMP280;57147;53.582;10.112;2022-11-15T09:53:03;100945.03;;;9.13
69857;BMP280;57147;53.582;10.112;2022-11-15T09:58:13;100916.72;;;9.04
69857;BMP280;57147;53.582;10.112;2022-11-15T10:03:18;100927.44;;;9.23
69857;BMP280;57147;53.582;10.112;2022-11-15T10:08:32;100945.00;;;9.52
69857;BMP280;57147;53.582;10.112;2022-11-15T10:13:39;100945.06;;;9.76
69857;BMP280;57147;53.582;10.112;2022-11-15T10:18:50;100932.75;;;9.90
69857;BMP280;57147;53.582;10.112;2022-11-15T10:23:56;100935.81;;;10.03
69857;BMP280;57147;53.582;10.112;2022-11-15T10:28:57;100934.25;;;10.02
69857;BMP280;57147;53.582;10.112;2022-11-15T10:34:12;100918.75;;;10.09
69857;BMP280;57147;53.582;10.112;2022-11-15T10:39:16;100914.97;;;10.15
69857;BMP280;57147;53.582;10.112;2022-11-15T10:44:25;100905.16;;;10.15
69857;BMP280;57147;53.582;10.112;2022-11-15T10:49:27;100906.50;;;10.13
69857;BMP280;57147;53.582;10.112;2022-11-15T10:54:36;100896.41;;;10.15
69857;BMP280;57147;53.582;10.112;2022-11-15T10:59:37;100882.09;;;10.11
69857;BMP280;57147;53.582;10.112;2022-11-15T11:04:49;100876.16;;;10.19
69857;BMP280;57147;53.582;10.112;2022-11-15T11:10:00;100866.63;;;10.18
69857;BMP280;57147;53.582;10.112;2022-11-15T11:15:05;100871.19;;;10.36
69857;BMP280;57147;53.582;10.112;2022-11-15T11:20:18;100870.28;;;10.46
69857;BMP280;57147;53.582;10.112;2022-11-15T11:25:30;100870.94;;;10.56
69857;BMP280;57147;53.582;10.112;2022-11-15T11:30:42;100851.28;;;10.57
69857;BMP280;57147;53.582;10.112;2022-11-15T11:35:55;100864.34;;;10.72
69857;BMP280;57147;53.582;10.112;2022-11-15T11:41:08;100865.78;;;10.84
69857;BMP280;57147;53.582;10.112;2022-11-15T11:46:18;100859.88;;;10.87
69857;BMP280;57147;53.582;10.112;2022-11-15T11:51:24;100849.66;;;10.94
69857;BMP280;57147;53.582;10.112;2022-11-15T11:56:29;100844.22;;;11.04
69857;BMP280;57147;53.582;10.112;2022-11-15T12:01:36;100851.09;;;11.05
69857;BMP280;57147;53.582;10.112;2022-11-15T12:06:42;100836.59;;;10.97
69857;BMP280;57147;53.582;10.112;2022-11-15T12:11:55;100834.56;;;11.08
69857;BMP280;57147;53.582;10.112;2022-11-15T12:16:57;100840.28;;;11.15
69857;BMP280;57147;53.582;10.112;2022-11-15T12:22:03;100827.50;;;11.17
69857;BMP280;57147;53.582;10.112;2022-11-15T12:27:16;100806.81;;;11.14
69857;BMP280;57147;53.582;10.112;2022-11-15T12:32:25;100804.41;;;11.31
69857;BMP280;57147;53.582;10.112;2022-11-15T12:37:34;100809.06;;;11.39
69857;BMP280;57147;53.582;10.112;2022-11-15T12:42:40;100806.69;;;11.38
69857;BMP280;57147;53.582;10.112;2022-11-15T12:47:41;100786.41;;;11.42
69857;BMP280;57147;53.582;10.112;2022-11-15T12:58:41;100790.38;;;11.72
69857;BMP280;57147;53.582;10.112;2022-11-15T13:04:12;100800.22;;;11.71
69857;BMP280;57147;53.582;10.112;2022-11-15T13:14:48;100786.41;;;11.56
69857;BMP280;57147;53.582;10.112;2022-11-15T13:19:53;100792.13;;;11.63
69857;BMP280;57147;53.582;10.112;2022-11-15T13:24:58;100774.59;;;11.62
69857;BMP280;57147;53.582;10.112;2022-11-15T13:30:04;100773.63;;;11.58
69857;BMP280;57147;53.582;10.112;2022-11-15T13:35:06;100761.00;;;11.63
69857;BMP280;57147;53.582;10.112;2022-11-15T13:40:20;100745.84;;;11.64
69857;BMP280;57147;53.582;10.112;2022-11-15T13:45:24;100747.03;;;11.58
69857;BMP280;57147;53.582;10.112;2022-11-15T13:50:29;100738.75;;;11.59
69857;BMP280;57147;53.582;10.112;2022-11-15T13:55:33;100735.31;;;11.59
69857;BMP280;57147;53.582;10.112;2022-11-15T14:00:39;100728.91;;;11.60
69857;BMP280;57147;53.582;10.112;2022-11-15T14:05:41;100731.06;;;11.58
69857;BMP280;57147;53.582;10.112;2022-11-15T14:10:41;100714.22;;;11.48
69857;BMP280;57147;53.582;10.112;2022-11-15T14:15:45;100715.91;;;11.58
69857;BMP280;57147;53.582;10.112;2022-11-15T14:20:46;100732.25;;;11.65
69857;BMP280;57147;53.582;10.112;2022-11-15T14:25:52;100729.31;;;11.67
69857;BMP280;57147;53.582;10.112;2022-11-15T14:30:57;100720.44;;;11.58
69857;BMP280;57147;53.582;10.112;2022-11-15T14:36:03;100700.34;;;11.38
69857;BMP280;57147;53.582;10.112;2022-11-15T14:41:04;100713.38;;;11.39
69857;BMP280;57147;53.582;10.112;2022-11-15T14:46:07;100721.00;;;11.27
69857;BMP280;57147;53.582;10.112;2022-11-15T14:51:12;100722.28;;;11.16
69857;BMP280;57147;53.582;10.112;2022-11-15T14:56:14;100722.88;;;11.13
69857;BMP280;57147;53.582;10.112;2022-11-15T15:01:21;100690.50;;;10.84
69857;BMP280;57147;53.582;10.112;2022-11-15T15:06:23;100704.94;;;10.91
69857;BMP280;57147;53.582;10.112;2022-11-15T15:11:27;100676.69;;;10.68
69857;BMP280;57147;53.582;10.112;2022-11-15T15:16:31;100706.03;;;10.77
69857;BMP280;57147;53.582;10.112;2022-11-15T15:21:31;100704.59;;;10.65
69857;BMP280;57147;53.582;10.112;2022-11-15T15:26:32;100706.34;;;10.56
69857;BMP280;57147;53.582;10.112;2022-11-15T15:31:35;100705.34;;;10.52
69857;BMP280;57147;53.582;10.112;2022-11-15T15:36:36;100703.72;;;10.38
69857;BMP280;57147;53.582;10.112;2022-11-15T15:41:37;100683.56;;;10.18
69857;BMP280;57147;53.582;10.112;2022-11-15T15:46:40;100707.59;;;10.26
69857;BMP280;57147;53.582;10.112;2022-11-15T15:51:41;100705.81;;;10.22
69857;BMP280;57147;53.582;10.112;2022-11-15T15:56:41;100674.78;;;10.04
69857;BMP280;57147;53.582;10.112;2022-11-15T16:01:44;100694.25;;;10.13
69857;BMP280;57147;53.582;10.112;2022-11-15T16:06:45;100700.72;;;10.07
69857;BMP280;57147;53.582;10.112;2022-11-15T16:11:46;100676.34;;;9.86
69857;BMP280;57147;53.582;10.112;2022-11-15T16:16:49;100668.69;;;9.84
69857;BMP280;57147;53.582;10.112;2022-11-15T16:21:50;100661.38;;;9.76
69857;BMP280;57147;53.582;10.112;2022-11-15T16:26:51;100653.94;;;9.78
69857;BMP280;57147;53.582;10.112;2022-11-15T16:31:54;100668.25;;;9.96
69857;BMP280;57147;53.582;10.112;2022-11-15T16:36:56;100655.72;;;10.02
69857;BMP280;57147;53.582;10.112;2022-11-15T16:41:57;100640.47;;;9.93
69857;BMP280;57147;53.582;10.112;2022-11-15T16:47:01;100634.00;;;10.00
69857;BMP280;57147;53.582;10.112;2022-11-15T16:52:01;100638.00;;;9.97
69857;BMP280;57147;53.582;10.112;2022-11-15T16:57:02;100610.78;;;9.91
69857;BMP280;57147;53.582;10.112;2022-11-15T17:02:09;100639.88;;;9.97
69857;BMP280;57147;53.582;10.112;2022-11-15T17:07:11;100628.31;;;9.87
69857;BMP280;57147;53.582;10.112;2022-11-15T17:12:11;100634.13;;;9.89
69857;BMP280;57147;53.582;10.112;2022-11-15T17:17:14;100621.38;;;9.91
69857;BMP280;57147;53.582;10.112;2022-11-15T17:22:15;100619.38;;;9.83
69857;BMP280;57147;53.582;10.112;2022-11-15T17:27:16;100617.28;;;9.80
69857;BMP280;57147;53.582;10.112;2022-11-15T17:32:19;100585.84;;;9.55
69857;BMP280;57147;53.582;10.112;2022-11-15T17:37:20;100545.03;;;9.32
69857;BMP280;57147;53.582;10.112;2022-11-15T17:42:20;100602.25;;;9.76
69857;BMP280;57147;53.582;10.112;2022-11-15T17:47:23;100609.50;;;9.70
69857;BMP280;57147;53.582;10.112;2022-11-15T17:52:24;100605.19;;;9.74
69857;BMP280;57147;53.582;10.112;2022-11-15T17:57:24;100602.59;;;9.69
69857;BMP280;57147;53.582;10.112;2022-11-15T18:02:29;100592.19;;;9.73
69857;BMP280;57147;53.582;10.112;2022-11-15T18:07:29;100596.84;;;9.81
69857;BMP280;57147;53.582;10.112;2022-11-15T18:12:30;100567.06;;;9.70
69857;BMP280;57147;53.582;10.112;2022-11-15T18:17:33;100592.28;;;9.86
69857;BMP280;57147;53.582;10.112;2022-11-15T18:22:34;100580.53;;;9.92
69857;BMP280;57147;53.582;10.112;2022-11-15T18:27:34;100583.50;;;10.05
69857;BMP280;57147;53.582;10.112;2022-11-15T18:32:37;100586.16;;;10.05
69857;BMP280;57147;53.582;10.112;2022-11-15T18:37:38;100564.03;;;9.96
69857;BMP280;57147;53.582;10.112;2022-11-15T18:42:39;100571.22;;;10.09
69857;BMP280;57147;53.582;10.112;2022-11-15T18:47:42;100555.41;;;10.04
69857;BMP280;57147;53.582;10.112;2022-11-15T18:52:42;100542.25;;;9.99
69857;BMP280;57147;53.582;10.112;2022-11-15T18:57:43;100561.31;;;10.01
69857;BMP280;57147;53.582;10.112;2022-11-15T19:02:46;100546.13;;;9.87
69857;BMP280;57147;53.582;10.112;2022-11-15T19:07:47;100534.53;;;9.83
69857;BMP280;57147;53.582;10.112;2022-11-15T19:12:47;100553.91;;;9.98
69857;BMP280;57147;53.582;10.112;2022-11-15T19:17:51;100555.50;;;9.99
69857;BMP280;57147;53.582;10.112;2022-11-15T19:22:51;100562.56;;;10.03
69857;BMP280;57147;53.582;10.112;2022-11-15T19:27:52;100573.50;;;10.02
69857;BMP280;57147;53.582;10.112;2022-11-15T19:32:55;100563.84;;;10.06
69857;BMP280;57147;53.582;10.112;2022-11-15T19:37:55;100550.41;;;10.02
69857;BMP280;57147;53.582;10.112;2022-11-15T19:42:56;100554.25;;;10.10
69857;BMP280;57147;53.582;10.112;2022-11-15T19:47:59;100524.06;;;9.92
69857;BMP280;57147;53.582;10.112;2022-11-15T19:53:00;100551.00;;;10.13
69857;BMP280;57147;53.582;10.112;2022-11-15T19:58:01;100554.06;;;10.20
69857;BMP280;57147;53.582;10.112;2022-11-15T20:03:04;100539.13;;;10.10
69857;BMP280;57147;53.582;10.112;2022-11-15T20:08:05;100534.00;;;10.00
69857;BMP280;57147;53.582;10.112;2022-11-15T20:13:05;100545.03;;;10.21
69857;BMP280;57147;53.582;10.112;2022-11-15T20:18:08;100547.53;;;10.31
69857;BMP280;57147;53.582;10.112;2022-11-15T20:23:09;100547.22;;;10.32
69857;BMP280;57147;53.582;10.112;2022-11-15T20:28:13;100544.25;;;10.34
69857;BMP280;57147;53.582;10.112;2022-11-15T20:33:17;100552.72;;;10.36
69857;BMP280;57147;53.582;10.112;2022-11-15T20:38:17;100553.63;;;10.31
69857;BMP280;57147;53.582;10.112;2022-11-15T20:43:18;100549.56;;;10.34
69857;BMP280;57147;53.582;10.112;2022-11-15T20:48:21;100550.56;;;10.38
69857;BMP280;57147;53.582;10.112;2022-11-15T20:53:22;100546.44;;;10.32
69857;BMP280;57147;53.582;10.112;2022-11-15T20:58:22;100541.59;;;10.34
69857;BMP280;57147;53.582;10.112;2022-11-15T21:03:26;100543.69;;;10.37
69857;BMP280;57147;53.582;10.112;2022-11-15T21:08:27;100531.91;;;10.43
69857;BMP280;57147;53.582;10.112;2022-11-15T21:13:29;100530.94;;;10.39
69857;BMP280;57147;53.582;10.112;2022-11-15T21:18:32;100523.03;;;10.34
69857;BMP280;57147;53.582;10.112;2022-11-15T21:23:33;100526.19;;;10.36
69857;BMP280;57147;53.582;10.112;2022-11-15T21:28:33;100497.38;;;10.16
69857;BMP280;57147;53.582;10.112;2022-11-15T21:33:36;100526.75;;;10.33
69857;BMP280;57147;53.582;10.112;2022-11-15T21:38:37;100529.41;;;10.33
69857;BMP280;57147;53.582;10.112;2022-11-15T21:43:38;100518.91;;;10.28
69857;BMP280;57147;53.582;10.112;2022-11-15T21:48:41;100480.06;;;10.05
69857;BMP280;57147;53.582;10.112;2022-11-15T21:53:41;100516.25;;;10.28
69857;BMP280;57147;53.582;10.112;2022-11-15T21:58:42;100516.75;;;10.30
69857;BMP280;57147;53.582;10.112;2022-11-15T22:03:45;100515.47;;;10.27
69857;BMP280;57147;53.582;10.112;2022-11-15T22:08:46;100487.63;;;10.11
69857;BMP280;57147;53.582;10.112;2022-11-15T22:13:47;100519.50;;;10.25
69857;BMP280;57147;53.582;10.112;2022-11-15T22:18:50;100506.72;;;10.27
69857;BMP280;57147;53.582;10.112;2022-11-15T22:23:51;100512.41;;;10.20
69857;BMP280;57147;53.582;10.112;2022-11-15T22:28:51;100498.44;;;10.15
69857;BMP280;57147;53.582;10.112;2022-11-15T22:33:55;100492.19;;;10.24
69857;BMP280;57147;53.582;10.112;2022-11-15T22:38:55;100494.72;;;10.16
69857;BMP280;57147;53.582;10.112;2022-11-15T22:43:56;100491.38;;;10.10
69857;BMP280;57147;53.582;10.112;2022-11-15T22:48:59;100483.31;;;10.02
69857;BMP280;57147;53.582;10.112;2022-11-15T22:54:00;100479.38;;;9.99
69857;BMP280;57147;53.582;10.112;2022-11-15T22:59:01;100491.56;;;10.00
69857;BMP280;57147;53.582;10.112;2022-11-15T23:04:04;100488.91;;;10.00
69857;BMP280;57147;53.582;10.112;2022-11-15T23:09:05;100488.69;;;9.97
69857;BMP280;57147;53.582;10.112;2022-11-15T23:14:05;100484.00;;;9.93
69857;BMP280;57147;53.582;10.112;2022-11-15T23:19:10;100478.75;;;9.88
69857;BMP280;57147;53.582;10.112;2022-11-15T23:24:12;100473.44;;;9.88
69857;BMP280;57147;53.582;10.112;2022-11-15T23:29:15;100453.78;;;9.76
69857;BMP280;57147;53.582;10.112;2022-11-15T23:34:18;100463.03;;;9.78
69857;BMP280;57147;53.582;10.112;2022-11-15T23:39:19;100421.16;;;9.43
69857;BMP280;57147;53.582;10.112;2022-11-15T23:44:20;100456.31;;;9.67
69857;BMP280;57147;53.582;10.112;2022-11-15T23:49:24;100461.75;;;9.57
69857;BMP280;57147;53.582;10.112;2022-11-15T23:54:24;100451.03;;;9.30
69857;BMP280;57147;53.582;10.112;2022-11-15T23:59:25;100448.78;;;9.04
